sensor_id;sensor_type;location;lat;lon;timestamp;pressure;altitude;pressure_sealevel;temperature;humidity
50310;BME280;36207;51.850;21.698;2022-12-29T00:02:21;99788.09;;;4.10;73.65
50310;BME280;36207;51.850;21.698;2022-12-29T00:04:50;99797.25;;;4.09;73.40
50310;BME280;36207;51.850;21.698;2022-12-29T00:07:17;99797.73;;;4.10;73.66
50310;BME280;36207;51.850;21.698;2022-12-29T00:09:44;99798.85;;;4.08;73.48
50310;BME280;36207;51.850;21.698;2022-12-29T00:12:10;99799.23;;;4.07;73.58
50310;BME280;36207;51.850;21.698;2022-12-29T00:14:36;99801.52;;;4.09;73.63
50310;BME280;36207;51.850;21.698;2022-12-29T00:17:21;99798.23;;;4.07;73.37
50310;BME280;36207;51.850;21.698;2022-12-29T00:19:47;99796.77;;;4.05;73.69
50310;BME280;36207;51.850;21.698;2022-12-29T00:22:32;99796.48;;;4.06;73.71
50310;BME280;36207;51.850;21.698;2022-12-29T00:25:17;99794.98;;;4.05;73.57
50310;BME280;36207;51.850;21.698;2022-12-29T00:28:02;99791.95;;;4.03;73.38
50310;BME280;36207;51.850;21.698;2022-12-29T00:30:47;99793.03;;;4.03;73.48
50310;BME280;36207;51.850;21.698;2022-12-29T00:33:33;99786.05;;;3.99;73.31
50310;BME280;36207;51.850;21.698;2022-12-29T00:36:21;99782.33;;;3.95;73.48
50310;BME280;36207;51.850;21.698;2022-12-29T00:39:00;99776.05;;;3.93;73.57
50310;BME280;36207;51.850;21.698;2022-12-29T00:41:48;99778.73;;;3.91;73.53
50310;BME280;36207;51.850;21.698;2022-12-29T00:44:33;99779.63;;;3.91;73.67
50310;BME280;36207;51.850;21.698;2022-12-29T00:46:59;99776.66;;;3.90;73.72
50310;BME280;36207;51.850;21.698;2022-12-29T00:49:31;99768.40;;;3.90;73.60
50310;BME280;36207;51.850;21.698;2022-12-29T00:52:03;99766.48;;;3.88;73.57
50310;BME280;36207;51.850;21.698;2022-12-29T00:54:32;99767.35;;;3.86;73.78
50310;BME280;36207;51.850;21.698;2022-12-29T00:56:59;99771.73;;;3.88;73.94
50310;BME280;36207;51.850;21.698;2022-12-29T00:59:25;99771.39;;;3.90;73.87
50310;BME280;36207;51.850;21.698;2022-12-29T01:01:53;99771.16;;;3.92;73.81
50310;BME280;36207;51.850;21.698;2022-12-29T01:04:21;99772.88;;;3.95;73.75
50310;BME280;36207;51.850;21.698;2022-12-29T01:06:48;99775.80;;;3.95;73.54
50310;BME280;36207;51.850;21.698;2022-12-29T01:09:16;99775.47;;;3.95;73.70
50310;BME280;36207;51.850;21.698;2022-12-29T01:12:01;99776.63;;;3.96;73.72
50310;BME280;36207;51.850;21.698;2022-12-29T01:14:28;99780.39;;;3.95;73.61
50310;BME280;36207;51.850;21.698;2022-12-29T01:16:55;99770.54;;;3.95;73.48
50310;BME280;36207;51.850;21.698;2022-12-29T01:19:22;99763.88;;;3.97;73.70
50310;BME280;36207;51.850;21.698;2022-12-29T01:21:48;99761.80;;;3.96;73.47
50310;BME280;36207;51.850;21.698;2022-12-29T01:24:16;99758.16;;;3.96;73.59
50310;BME280;36207;51.850;21.698;2022-12-29T01:26:42;99757.99;;;3.94;73.36
50310;BME280;36207;51.850;21.698;2022-12-29T01:29:09;99758.57;;;3.90;73.19
50310;BME280;36207;51.850;21.698;2022-12-29T01:31:36;99753.38;;;3.83;73.20
50310;BME280;36207;51.850;21.698;2022-12-29T01:34:02;99756.67;;;3.78;73.19
50310;BME280;36207;51.850;21.698;2022-12-29T01:36:29;99753.89;;;3.75;73.49
50310;BME280;36207;51.850;21.698;2022-12-29T01:38:56;99752.65;;;3.72;73.30
50310;BME280;36207;51.850;21.698;2022-12-29T01:41:22;99745.28;;;3.72;73.53
50310;BME280;36207;51.850;21.698;2022-12-29T01:43:55;99744.06;;;3.71;73.40
50310;BME280;36207;51.850;21.698;2022-12-29T01:46:40;99738.94;;;3.68;73.12
50310;BME280;36207;51.850;21.698;2022-12-29T01:51:58;99739.96;;;3.58;73.16
50310;BME280;36207;51.850;21.698;2022-12-29T01:54:32;99744.07;;;3.54;72.99
50310;BME280;36207;51.850;21.698;2022-12-29T01:57:03;99739.36;;;3.51;73.20
50310;BME280;36207;51.850;21.698;2022-12-29T01:59:33;99732.88;;;3.51;73.24
50310;BME280;36207;51.850;21.698;2022-12-29T02:02:01;99731.02;;;3.50;73.22
50310;BME280;36207;51.850;21.698;2022-12-29T02:04:30;99725.30;;;3.49;73.32
50310;BME280;36207;51.850;21.698;2022-12-29T02:07:01;99715.41;;;3.48;73.11
50310;BME280;36207;51.850;21.698;2022-12-29T02:09:29;99707.71;;;3.45;73.02
50310;BME280;36207;51.850;21.698;2022-12-29T02:11:56;99706.08;;;3.46;73.21
50310;BME280;36207;51.850;21.698;2022-12-29T02:14:24;99701.46;;;3.46;72.91
50310;BME280;36207;51.850;21.698;2022-12-29T02:20:32;99703.64;;;3.53;72.91
50310;BME280;36207;51.850;21.698;2022-12-29T02:31:44;99684.48;;;3.44;72.69
50310;BME280;36207;51.850;21.698;2022-12-29T02:39:38;99687.73;;;3.45;72.49
50310;BME280;36207;51.850;21.698;2022-12-29T02:47:34;99685.95;;;3.33;72.22
50310;BME280;36207;51.850;21.698;2022-12-29T02:50:19;99685.61;;;3.29;72.41
50310;BME280;36207;51.850;21.698;2022-12-29T02:52:50;99691.42;;;3.26;72.39
50310;BME280;36207;51.850;21.698;2022-12-29T02:55:19;99687.77;;;3.23;72.68
50310;BME280;36207;51.850;21.698;2022-12-29T02:57:45;99688.63;;;3.22;72.46
50310;BME280;36207;51.850;21.698;2022-12-29T03:00:16;99685.73;;;3.19;72.42
50310;BME280;36207;51.850;21.698;2022-12-29T03:11:12;99698.88;;;3.17;72.41
50310;BME280;36207;51.850;21.698;2022-12-29T03:14:33;99699.77;;;3.17;72.33
50310;BME280;36207;51.850;21.698;2022-12-29T03:17:38;99692.92;;;3.23;72.45
50310;BME280;36207;51.850;21.698;2022-12-29T03:20:09;99692.81;;;3.26;72.60
50310;BME280;36207;51.850;21.698;2022-12-29T03:22:43;99698.95;;;3.28;72.44
50310;BME280;36207;51.850;21.698;2022-12-29T03:25:30;99700.45;;;3.29;72.39
50310;BME280;36207;51.850;21.698;2022-12-29T03:28:06;99700.78;;;3.29;72.50
50310;BME280;36207;51.850;21.698;2022-12-29T03:30:34;99699.34;;;3.28;72.58
50310;BME280;36207;51.850;21.698;2022-12-29T03:33:04;99698.70;;;3.27;72.55
50310;BME280;36207;51.850;21.698;2022-12-29T03:35:36;99700.93;;;3.24;72.62
50310;BME280;36207;51.850;21.698;2022-12-29T03:38:21;99702.41;;;3.25;72.76
50310;BME280;36207;51.850;21.698;2022-12-29T03:40:52;99704.56;;;3.28;72.94
50310;BME280;36207;51.850;21.698;2022-12-29T03:43:21;99709.01;;;3.30;73.02
50310;BME280;36207;51.850;21.698;2022-12-29T03:45:47;99710.12;;;3.29;73.08
50310;BME280;36207;51.850;21.698;2022-12-29T03:48:14;99708.80;;;3.26;73.17
50310;BME280;36207;51.850;21.698;2022-12-29T03:50:40;99708.27;;;3.24;73.34
50310;BME280;36207;51.850;21.698;2022-12-29T03:53:06;99707.10;;;3.24;73.54
50310;BME280;36207;51.850;21.698;2022-12-29T03:55:33;99705.63;;;3.24;73.69
50310;BME280;36207;51.850;21.698;2022-12-29T03:57:59;99705.48;;;3.24;73.63
50310;BME280;36207;51.850;21.698;2022-12-29T04:00:25;99703.04;;;3.23;74.11
50310;BME280;36207;51.850;21.698;2022-12-29T04:02:52;99700.50;;;3.22;73.96
50310;BME280;36207;51.850;21.698;2022-12-29T04:05:18;99700.73;;;3.20;74.02
50310;BME280;36207;51.850;21.698;2022-12-29T04:07:44;99697.82;;;3.17;74.19
50310;BME280;36207;51.850;21.698;2022-12-29T04:10:10;99701.68;;;3.17;74.37
50310;BME280;36207;51.850;21.698;2022-12-29T04:12:36;99700.37;;;3.14;74.58
50310;BME280;36207;51.850;21.698;2022-12-29T04:15:03;99692.84;;;3.06;74.55
50310;BME280;36207;51.850;21.698;2022-12-29T04:17:29;99691.61;;;3.00;75.07
50310;BME280;36207;51.850;21.698;2022-12-29T04:19:55;99687.26;;;2.90;75.24
50310;BME280;36207;51.850;21.698;2022-12-29T04:22:41;99682.83;;;2.84;75.32
50310;BME280;36207;51.850;21.698;2022-12-29T04:25:08;99682.65;;;2.82;75.52
50310;BME280;36207;51.850;21.698;2022-12-29T04:27:34;99676.31;;;2.81;75.42
50310;BME280;36207;51.850;21.698;2022-12-29T04:30:00;99671.08;;;2.78;75.27
50310;BME280;36207;51.850;21.698;2022-12-29T04:32:26;99657.07;;;2.76;75.48
50310;BME280;36207;51.850;21.698;2022-12-29T04:34:53;99651.20;;;2.71;75.54
50310;BME280;36207;51.850;21.698;2022-12-29T04:37:19;99626.04;;;2.65;75.79
50310;BME280;36207;51.850;21.698;2022-12-29T04:39:45;99602.17;;;2.62;76.41
50310;BME280;36207;51.850;21.698;2022-12-29T04:42:11;99624.09;;;2.57;76.32
50310;BME280;36207;51.850;21.698;2022-12-29T04:44:37;99635.23;;;2.54;76.14
50310;BME280;36207;51.850;21.698;2022-12-29T04:47:03;99627.55;;;2.52;75.85
50310;BME280;36207;51.850;21.698;2022-12-29T04:49:30;99624.27;;;2.49;76.35
50310;BME280;36207;51.850;21.698;2022-12-29T04:51:56;99620.96;;;2.49;76.21
50310;BME280;36207;51.850;21.698;2022-12-29T04:54:23;99621.69;;;2.49;76.67
50310;BME280;36207;51.850;21.698;2022-12-29T04:56:49;99617.95;;;2.45;76.43
50310;BME280;36207;51.850;21.698;2022-12-29T04:59:15;99615.13;;;2.45;76.18
50310;BME280;36207;51.850;21.698;2022-12-29T05:01:41;99617.11;;;2.47;76.30
50310;BME280;36207;51.850;21.698;2022-12-29T05:04:08;99617.20;;;2.50;76.29
50310;BME280;36207;51.850;21.698;2022-12-29T05:06:34;99615.95;;;2.50;76.44
50310;BME280;36207;51.850;21.698;2022-12-29T05:09:00;99616.84;;;2.50;76.39
50310;BME280;36207;51.850;21.698;2022-12-29T05:11:26;99620.89;;;2.52;76.34
50310;BME280;36207;51.850;21.698;2022-12-29T05:13:53;99620.66;;;2.50;76.50
50310;BME280;36207;51.850;21.698;2022-12-29T05:16:19;99617.07;;;2.51;76.58
50310;BME280;36207;51.850;21.698;2022-12-29T05:18:45;99603.91;;;2.51;76.46
50310;BME280;36207;51.850;21.698;2022-12-29T05:21:11;99603.74;;;2.51;76.52
50310;BME280;36207;51.850;21.698;2022-12-29T05:23:37;99597.27;;;2.51;76.47
50310;BME280;36207;51.850;21.698;2022-12-29T05:26:03;99593.06;;;2.51;76.49
50310;BME280;36207;51.850;21.698;2022-12-29T05:28:30;99595.84;;;2.53;76.42
50310;BME280;36207;51.850;21.698;2022-12-29T05:30:56;99596.46;;;2.52;76.44
50310;BME280;36207;51.850;21.698;2022-12-29T05:33:22;99600.92;;;2.51;76.56
50310;BME280;36207;51.850;21.698;2022-12-29T05:35:49;99598.98;;;2.49;76.53
50310;BME280;36207;51.850;21.698;2022-12-29T05:38:15;99595.48;;;2.51;76.52
50310;BME280;36207;51.850;21.698;2022-12-29T05:40:41;99598.20;;;2.52;76.39
50310;BME280;36207;51.850;21.698;2022-12-29T05:43:08;99618.83;;;2.53;76.52
50310;BME280;36207;51.850;21.698;2022-12-29T05:45:36;99615.94;;;2.54;76.42
50310;BME280;36207;51.850;21.698;2022-12-29T05:48:02;99609.77;;;2.56;76.10
50310;BME280;36207;51.850;21.698;2022-12-29T05:50:28;99601.23;;;2.59;76.03
50310;BME280;36207;51.850;21.698;2022-12-29T05:52:54;99593.38;;;2.60;75.84
50310;BME280;36207;51.850;21.698;2022-12-29T05:55:21;99578.25;;;2.61;76.03
50310;BME280;36207;51.850;21.698;2022-12-29T05:57:47;99576.70;;;2.60;75.94
50310;BME280;36207;51.850;21.698;2022-12-29T06:00:14;99580.17;;;2.59;75.92
50310;BME280;36207;51.850;21.698;2022-12-29T06:02:40;99580.27;;;2.54;76.14
50310;BME280;36207;51.850;21.698;2022-12-29T06:05:07;99578.06;;;2.51;76.21
50310;BME280;36207;51.850;21.698;2022-12-29T06:07:33;99574.44;;;2.49;76.25
50310;BME280;36207;51.850;21.698;2022-12-29T06:10:00;99584.85;;;2.46;76.44
50310;BME280;36207;51.850;21.698;2022-12-29T06:12:26;99577.36;;;2.45;76.34
50310;BME280;36207;51.850;21.698;2022-12-29T06:14:52;99577.80;;;2.49;76.10
50310;BME280;36207;51.850;21.698;2022-12-29T06:17:18;99586.42;;;2.48;76.20
50310;BME280;36207;51.850;21.698;2022-12-29T06:19:44;99580.89;;;2.51;76.08
50310;BME280;36207;51.850;21.698;2022-12-29T06:22:11;99567.27;;;2.50;75.92
50310;BME280;36207;51.850;21.698;2022-12-29T06:24:38;99572.45;;;2.51;76.02
50310;BME280;36207;51.850;21.698;2022-12-29T06:27:04;99571.56;;;2.53;75.98
50310;BME280;36207;51.850;21.698;2022-12-29T06:29:30;99559.20;;;2.54;75.91
50310;BME280;36207;51.850;21.698;2022-12-29T06:31:57;99566.21;;;2.54;75.80
50310;BME280;36207;51.850;21.698;2022-12-29T06:34:24;99574.09;;;2.54;75.75
50310;BME280;36207;51.850;21.698;2022-12-29T06:36:51;99563.06;;;2.58;75.95
50310;BME280;36207;51.850;21.698;2022-12-29T06:39:17;99564.42;;;2.58;75.51
50310;BME280;36207;51.850;21.698;2022-12-29T06:41:43;99565.84;;;2.58;75.49
50310;BME280;36207;51.850;21.698;2022-12-29T06:44:10;99565.54;;;2.58;75.37
50310;BME280;36207;51.850;21.698;2022-12-29T06:46:36;99567.84;;;2.56;75.42
50310;BME280;36207;51.850;21.698;2022-12-29T06:49:02;99571.05;;;2.57;75.50
50310;BME280;36207;51.850;21.698;2022-12-29T06:51:28;99578.11;;;2.57;75.09
50310;BME280;36207;51.850;21.698;2022-12-29T06:53:55;99579.15;;;2.59;75.35
50310;BME280;36207;51.850;21.698;2022-12-29T06:56:21;99578.64;;;2.60;75.19
50310;BME280;36207;51.850;21.698;2022-12-29T06:58:47;99578.55;;;2.61;74.94
50310;BME280;36207;51.850;21.698;2022-12-29T07:01:13;99578.22;;;2.63;74.98
50310;BME280;36207;51.850;21.698;2022-12-29T07:03:41;99588.86;;;2.62;74.89
50310;BME280;36207;51.850;21.698;2022-12-29T07:06:08;99580.72;;;2.63;75.07
50310;BME280;36207;51.850;21.698;2022-12-29T07:08:35;99567.56;;;2.66;74.98
50310;BME280;36207;51.850;21.698;2022-12-29T07:11:01;99562.13;;;2.70;74.98
50310;BME280;36207;51.850;21.698;2022-12-29T07:13:28;99560.15;;;2.74;75.10
50310;BME280;36207;51.850;21.698;2022-12-29T07:15:55;99574.40;;;2.78;74.70
50310;BME280;36207;51.850;21.698;2022-12-29T07:18:21;99578.24;;;2.78;74.57
50310;BME280;36207;51.850;21.698;2022-12-29T07:20:47;99579.62;;;2.79;74.79
50310;BME280;36207;51.850;21.698;2022-12-29T07:23:13;99579.45;;;2.79;74.48
50310;BME280;36207;51.850;21.698;2022-12-29T07:25:40;99581.52;;;2.81;74.15
50310;BME280;36207;51.850;21.698;2022-12-29T07:28:07;99581.33;;;2.85;74.52
50310;BME280;36207;51.850;21.698;2022-12-29T07:30:33;99583.33;;;2.90;74.80
50310;BME280;36207;51.850;21.698;2022-12-29T07:32:59;99578.40;;;2.94;74.41
50310;BME280;36207;51.850;21.698;2022-12-29T07:35:25;99569.19;;;2.93;74.22
50310;BME280;36207;51.850;21.698;2022-12-29T07:37:52;99576.79;;;2.94;74.04
50310;BME280;36207;51.850;21.698;2022-12-29T07:40:18;99564.23;;;2.97;74.54
50310;BME280;36207;51.850;21.698;2022-12-29T07:42:44;99565.65;;;3.01;74.15
50310;BME280;36207;51.850;21.698;2022-12-29T07:45:10;99568.08;;;3.05;73.85
50310;BME280;36207;51.850;21.698;2022-12-29T07:47:37;99568.60;;;3.09;73.87
50310;BME280;36207;51.850;21.698;2022-12-29T07:50:04;99565.29;;;3.12;73.50
50310;BME280;36207;51.850;21.698;2022-12-29T07:52:30;99564.05;;;3.12;72.62
50310;BME280;36207;51.850;21.698;2022-12-29T07:54:56;99563.42;;;3.13;73.62
50310;BME280;36207;51.850;21.698;2022-12-29T07:57:23;99562.42;;;3.14;73.16
50310;BME280;36207;51.850;21.698;2022-12-29T07:59:49;99563.78;;;3.17;73.60
50310;BME280;36207;51.850;21.698;2022-12-29T08:02:15;99570.36;;;3.20;73.33
50310;BME280;36207;51.850;21.698;2022-12-29T08:04:41;99572.45;;;3.24;73.25
50310;BME280;36207;51.850;21.698;2022-12-29T08:07:08;99566.96;;;3.30;72.82
50310;BME280;36207;51.850;21.698;2022-12-29T08:09:34;99557.30;;;3.56;73.16
50310;BME280;36207;51.850;21.698;2022-12-29T08:12:00;99562.22;;;4.31;74.10
50310;BME280;36207;51.850;21.698;2022-12-29T08:14:26;99560.64;;;5.00;71.65
50310;BME280;36207;51.850;21.698;2022-12-29T08:16:53;99559.81;;;5.33;70.67
50310;BME280;36207;51.850;21.698;2022-12-29T08:19:19;99560.10;;;5.55;70.44
50310;BME280;36207;51.850;21.698;2022-12-29T08:21:46;99559.87;;;5.64;69.32
50310;BME280;36207;51.850;21.698;2022-12-29T08:24:12;99561.16;;;5.63;68.96
50310;BME280;36207;51.850;21.698;2022-12-29T08:26:38;99560.76;;;5.53;68.98
50310;BME280;36207;51.850;21.698;2022-12-29T08:29:06;99553.29;;;5.57;69.77
50310;BME280;36207;51.850;21.698;2022-12-29T08:31:32;99548.59;;;5.82;69.71
50310;BME280;36207;51.850;21.698;2022-12-29T08:33:59;99544.41;;;5.88;68.13
50310;BME280;36207;51.850;21.698;2022-12-29T08:36:26;99547.80;;;5.71;66.42
50310;BME280;36207;51.850;21.698;2022-12-29T08:38:52;99546.80;;;5.45;67.33
50310;BME280;36207;51.850;21.698;2022-12-29T08:41:18;99550.23;;;5.27;67.95
50310;BME280;36207;51.850;21.698;2022-12-29T08:43:48;99550.58;;;5.09;67.14
50310;BME280;36207;51.850;21.698;2022-12-29T08:46:15;99554.80;;;4.95;67.93
50310;BME280;36207;51.850;21.698;2022-12-29T08:48:42;99554.96;;;4.87;68.98
50310;BME280;36207;51.850;21.698;2022-12-29T08:51:09;99555.98;;;4.83;68.85
50310;BME280;36207;51.850;21.698;2022-12-29T08:53:35;99557.44;;;4.82;68.15
50310;BME280;36207;51.850;21.698;2022-12-29T08:56:01;99553.19;;;4.82;68.48
50310;BME280;36207;51.850;21.698;2022-12-29T08:58:28;99550.04;;;4.83;68.72
50310;BME280;36207;51.850;21.698;2022-12-29T09:00:56;99549.67;;;4.83;68.29
50310;BME280;36207;51.850;21.698;2022-12-29T09:03:23;99548.27;;;4.85;68.70
50310;BME280;36207;51.850;21.698;2022-12-29T09:05:52;99547.92;;;4.88;68.54
50310;BME280;36207;51.850;21.698;2022-12-29T09:08:20;99543.73;;;4.90;68.17
50310;BME280;36207;51.850;21.698;2022-12-29T09:10:47;99547.42;;;4.96;67.32
50310;BME280;36207;51.850;21.698;2022-12-29T09:13:14;99542.39;;;4.94;67.49
50310;BME280;36207;51.850;21.698;2022-12-29T09:15:41;99541.51;;;4.91;67.43
50310;BME280;36207;51.850;21.698;2022-12-29T09:18:08;99535.73;;;4.88;67.55
50310;BME280;36207;51.850;21.698;2022-12-29T09:20:35;99530.45;;;4.87;67.61
50310;BME280;36207;51.850;21.698;2022-12-29T09:23:01;99535.14;;;4.84;67.92
50310;BME280;36207;51.850;21.698;2022-12-29T09:25:28;99540.74;;;4.82;68.39
50310;BME280;36207;51.850;21.698;2022-12-29T09:27:55;99540.78;;;4.82;68.48
50310;BME280;36207;51.850;21.698;2022-12-29T09:30:22;99543.42;;;4.82;67.80
50310;BME280;36207;51.850;21.698;2022-12-29T09:32:49;99542.46;;;4.86;68.25
50310;BME280;36207;51.850;21.698;2022-12-29T09:35:16;99540.73;;;4.91;68.50
50310;BME280;36207;51.850;21.698;2022-12-29T09:37:43;99543.41;;;4.97;68.52
50310;BME280;36207;51.850;21.698;2022-12-29T09:40:24;99540.83;;;4.99;68.43
50310;BME280;36207;51.850;21.698;2022-12-29T09:43:04;99536.81;;;5.01;68.05
50310;BME280;36207;51.850;21.698;2022-12-29T09:45:44;99531.14;;;5.04;68.29
50310;BME280;36207;51.850;21.698;2022-12-29T09:48:23;99521.16;;;5.07;68.27
50310;BME280;36207;51.850;21.698;2022-12-29T09:51:04;99519.55;;;5.09;68.30
50310;BME280;36207;51.850;21.698;2022-12-29T09:53:49;99517.59;;;5.08;67.87
50310;BME280;36207;51.850;21.698;2022-12-29T09:56:21;99509.14;;;5.06;68.32
50310;BME280;36207;51.850;21.698;2022-12-29T09:58:55;99509.10;;;5.04;67.55
50310;BME280;36207;51.850;21.698;2022-12-29T10:01:28;99512.31;;;5.04;67.83
50310;BME280;36207;51.850;21.698;2022-12-29T10:03:58;99514.55;;;5.05;67.73
50310;BME280;36207;51.850;21.698;2022-12-29T10:09:08;99509.11;;;5.09;68.47
50310;BME280;36207;51.850;21.698;2022-12-29T10:23:26;99488.46;;;5.37;68.20
50310;BME280;36207;51.850;21.698;2022-12-29T10:25:56;99482.23;;;5.59;68.14
50310;BME280;36207;51.850;21.698;2022-12-29T10:28:44;99485.11;;;5.79;66.98
50310;BME280;36207;51.850;21.698;2022-12-29T10:31:22;99480.09;;;5.94;67.24
50310;BME280;36207;51.850;21.698;2022-12-29T10:33:51;99477.02;;;6.04;67.08
50310;BME280;36207;51.850;21.698;2022-12-29T10:36:32;99477.77;;;6.12;67.29
50310;BME280;36207;51.850;21.698;2022-12-29T10:39:32;99476.64;;;6.18;66.96
50310;BME280;36207;51.850;21.698;2022-12-29T10:42:09;99472.39;;;6.21;66.94
50310;BME280;36207;51.850;21.698;2022-12-29T10:44:38;99468.07;;;6.20;66.18
50310;BME280;36207;51.850;21.698;2022-12-29T10:47:10;99472.33;;;6.18;67.14
50310;BME280;36207;51.850;21.698;2022-12-29T10:49:41;99468.33;;;6.18;67.00
50310;BME280;36207;51.850;21.698;2022-12-29T10:52:09;99462.48;;;6.18;66.54
50310;BME280;36207;51.850;21.698;2022-12-29T10:57:37;99458.73;;;6.22;66.72
50310;BME280;36207;51.850;21.698;2022-12-29T11:00:14;99457.94;;;6.28;66.64
50310;BME280;36207;51.850;21.698;2022-12-29T11:06:23;99447.45;;;6.33;66.39
50310;BME280;36207;51.850;21.698;2022-12-29T11:08:57;99444.58;;;6.32;66.01
50310;BME280;36207;51.850;21.698;2022-12-29T11:11:27;99439.87;;;6.36;66.77
50310;BME280;36207;51.850;21.698;2022-12-29T11:14:33;99442.42;;;6.42;66.15
50310;BME280;36207;51.850;21.698;2022-12-29T11:17:03;99437.30;;;6.48;65.62
50310;BME280;36207;51.850;21.698;2022-12-29T11:19:31;99437.17;;;6.54;66.28
50310;BME280;36207;51.850;21.698;2022-12-29T11:22:19;99432.13;;;6.62;66.29
50310;BME280;36207;51.850;21.698;2022-12-29T11:24:47;99430.70;;;6.70;65.66
50310;BME280;36207;51.850;21.698;2022-12-29T11:27:23;99430.27;;;6.77;65.57
50310;BME280;36207;51.850;21.698;2022-12-29T11:29:51;99428.40;;;6.84;65.53
50310;BME280;36207;51.850;21.698;2022-12-29T11:32:23;99421.15;;;6.91;65.03
50310;BME280;36207;51.850;21.698;2022-12-29T11:34:50;99421.60;;;6.98;65.59
50310;BME280;36207;51.850;21.698;2022-12-29T11:45:05;99431.02;;;7.18;65.64
50310;BME280;36207;51.850;21.698;2022-12-29T11:47:33;99433.58;;;7.17;65.50
50310;BME280;36207;51.850;21.698;2022-12-29T11:50:05;99437.38;;;7.15;66.11
50310;BME280;36207;51.850;21.698;2022-12-29T11:52:35;99442.96;;;7.12;65.78
50310;BME280;36207;51.850;21.698;2022-12-29T11:55:16;99451.90;;;7.10;65.43
50310;BME280;36207;51.850;21.698;2022-12-29T11:57:44;99448.02;;;7.08;66.03
50310;BME280;36207;51.850;21.698;2022-12-29T12:00:16;99445.27;;;7.06;65.68
50310;BME280;36207;51.850;21.698;2022-12-29T12:03:00;99439.97;;;7.03;65.90
50310;BME280;36207;51.850;21.698;2022-12-29T12:05:46;99436.12;;;7.01;66.56
50310;BME280;36207;51.850;21.698;2022-12-29T12:11:14;99437.02;;;6.99;66.44
50310;BME280;36207;51.850;21.698;2022-12-29T12:14:01;99433.86;;;6.99;66.99
50310;BME280;36207;51.850;21.698;2022-12-29T12:16:34;99432.84;;;6.98;66.44
50310;BME280;36207;51.850;21.698;2022-12-29T12:19:14;99437.45;;;6.98;66.22
50310;BME280;36207;51.850;21.698;2022-12-29T12:21:46;99434.96;;;7.00;66.44
50310;BME280;36207;51.850;21.698;2022-12-29T12:24:29;99435.13;;;7.02;66.92
50310;BME280;36207;51.850;21.698;2022-12-29T12:27:12;99435.74;;;7.04;67.01
50310;BME280;36207;51.850;21.698;2022-12-29T12:32:47;99430.28;;;7.06;65.95
50310;BME280;36207;51.850;21.698;2022-12-29T12:35:32;99436.98;;;7.07;66.13
50310;BME280;36207;51.850;21.698;2022-12-29T12:40:51;99429.02;;;7.11;66.18
50310;BME280;36207;51.850;21.698;2022-12-29T12:43:33;99425.84;;;7.12;66.14
50310;BME280;36207;51.850;21.698;2022-12-29T12:46:14;99420.95;;;7.15;66.30
50310;BME280;36207;51.850;21.698;2022-12-29T12:54:38;99413.90;;;7.19;66.32
50310;BME280;36207;51.850;21.698;2022-12-29T12:57:14;99413.69;;;7.21;66.71
50310;BME280;36207;51.850;21.698;2022-12-29T13:00:00;99413.69;;;7.23;66.84
50310;BME280;36207;51.850;21.698;2022-12-29T13:05:36;99412.50;;;7.25;67.00
50310;BME280;36207;51.850;21.698;2022-12-29T13:08:43;99416.58;;;7.27;66.89
50310;BME280;36207;51.850;21.698;2022-12-29T13:12:03;99412.30;;;7.27;66.30
50310;BME280;36207;51.850;21.698;2022-12-29T13:22:29;99420.75;;;7.31;66.89
50310;BME280;36207;51.850;21.698;2022-12-29T13:31:19;99425.90;;;7.29;66.52
50310;BME280;36207;51.850;21.698;2022-12-29T13:36:29;99419.08;;;7.28;66.56
50310;BME280;36207;51.850;21.698;2022-12-29T13:39:09;99414.61;;;7.29;66.53
50310;BME280;36207;51.850;21.698;2022-12-29T13:41:43;99412.70;;;7.28;66.53
50310;BME280;36207;51.850;21.698;2022-12-29T13:44:24;99410.44;;;7.26;66.49
50310;BME280;36207;51.850;21.698;2022-12-29T13:46:52;99414.39;;;7.23;66.61
50310;BME280;36207;51.850;21.698;2022-12-29T13:49:22;99410.31;;;7.20;66.59
50310;BME280;36207;51.850;21.698;2022-12-29T13:55:22;99408.84;;;7.12;66.43
50310;BME280;36207;51.850;21.698;2022-12-29T14:00:21;99422.39;;;7.08;66.36
50310;BME280;36207;51.850;21.698;2022-12-29T14:05:30;99420.94;;;7.07;66.57
50310;BME280;36207;51.850;21.698;2022-12-29T14:08:00;99418.05;;;7.07;66.40
50310;BME280;36207;51.850;21.698;2022-12-29T14:10:28;99420.61;;;7.08;66.29
50310;BME280;36207;51.850;21.698;2022-12-29T14:13:14;99412.77;;;7.08;66.17
50310;BME280;36207;51.850;21.698;2022-12-29T14:15:54;99410.77;;;7.11;66.52
50310;BME280;36207;51.850;21.698;2022-12-29T14:18:22;99413.16;;;7.11;66.88
50310;BME280;36207;51.850;21.698;2022-12-29T14:23:40;99424.45;;;7.14;67.03
50310;BME280;36207;51.850;21.698;2022-12-29T14:26:11;99419.80;;;7.15;66.68
50310;BME280;36207;51.850;21.698;2022-12-29T14:28:48;99414.28;;;7.21;66.17
50310;BME280;36207;51.850;21.698;2022-12-29T14:36:37;99418.13;;;7.34;66.28
50310;BME280;36207;51.850;21.698;2022-12-29T14:39:37;99416.98;;;7.37;66.37
50310;BME280;36207;51.850;21.698;2022-12-29T14:58:02;99425.74;;;7.64;65.39
50310;BME280;36207;51.850;21.698;2022-12-29T15:00:35;99429.27;;;7.68;65.62
50310;BME280;36207;51.850;21.698;2022-12-29T15:03:07;99426.57;;;7.72;65.33
50310;BME280;36207;51.850;21.698;2022-12-29T15:05:48;99427.15;;;7.73;65.54
50310;BME280;36207;51.850;21.698;2022-12-29T15:08:19;99423.30;;;7.72;65.60
50310;BME280;36207;51.850;21.698;2022-12-29T15:13:42;99429.16;;;7.75;65.24
50310;BME280;36207;51.850;21.698;2022-12-29T15:16:39;99433.02;;;7.77;65.51
50310;BME280;36207;51.850;21.698;2022-12-29T15:19:21;99438.86;;;7.77;65.42
50310;BME280;36207;51.850;21.698;2022-12-29T15:21:47;99439.66;;;7.77;65.55
50310;BME280;36207;51.850;21.698;2022-12-29T15:24:14;99439.27;;;7.75;65.20
50310;BME280;36207;51.850;21.698;2022-12-29T15:26:44;99435.42;;;7.75;65.36
50310;BME280;36207;51.850;21.698;2022-12-29T15:29:40;99436.13;;;7.74;65.34
50310;BME280;36207;51.850;21.698;2022-12-29T15:34:47;99442.39;;;7.70;64.83
50310;BME280;36207;51.850;21.698;2022-12-29T15:37:19;99444.42;;;7.67;64.82